createdAt,value
2024-01-11T00:00:55.233Z,3.04
2024-01-11T00:01:54.822Z,3.01
2024-01-11T00:02:54.817Z,3.02
2024-01-11T00:03:54.802Z,3.06
2024-01-11T00:04:54.871Z,2.78
2024-01-11T00:05:54.908Z,2.49
2024-01-11T00:06:54.908Z,2.34
2024-01-11T00:07:54.817Z,2.26
2024-01-11T00:08:54.879Z,2.20
2024-01-11T00:09:54.897Z,2.32
2024-01-11T00:10:55.905Z,2.50
2024-01-11T00:11:54.810Z,2.61
2024-01-11T00:12:54.924Z,2.69
2024-01-11T00:13:54.932Z,2.82
2024-01-11T00:14:54.978Z,2.90
2024-01-11T00:15:54.950Z,3.04
2024-01-11T00:16:54.925Z,3.01
2024-01-11T00:17:55.049Z,2.97
2024-01-11T00:18:55.064Z,3.05
2024-01-11T00:19:55.991Z,3.08
2024-01-11T00:20:55.020Z,3.02
2024-01-11T00:21:55.015Z,3.11
2024-01-11T00:22:55.017Z,3.17
2024-01-11T00:23:55.039Z,3.22
2024-01-11T00:24:55.100Z,3.31
2024-01-11T00:25:55.085Z,3.35
2024-01-11T00:26:55.072Z,3.43
2024-01-11T00:27:55.121Z,3.50
2024-01-11T00:28:55.180Z,3.55
2024-01-11T00:29:55.067Z,3.57
2024-01-11T00:30:55.077Z,3.62
2024-01-11T00:31:55.084Z,3.65
2024-01-11T00:32:56.140Z,3.60
2024-01-11T00:33:55.199Z,3.69
2024-01-11T00:34:55.176Z,3.78
2024-01-11T00:35:55.108Z,3.75
2024-01-11T00:36:55.080Z,3.59
2024-01-11T00:37:55.105Z,3.56
2024-01-11T00:38:55.112Z,3.65
2024-01-11T00:39:55.069Z,3.68
2024-01-11T00:40:55.098Z,3.70
2024-01-11T00:41:55.102Z,3.71
2024-01-11T00:42:56.053Z,3.80
2024-01-11T00:43:55.154Z,3.75
2024-01-11T00:44:55.163Z,3.63
2024-01-11T00:45:55.127Z,3.60
2024-01-11T00:46:55.183Z,3.70
2024-01-11T00:47:55.257Z,3.70
2024-01-11T00:48:56.780Z,3.71
2024-01-11T00:49:55.321Z,3.52
2024-01-11T00:50:56.188Z,3.35
2024-01-11T00:51:55.177Z,3.23
2024-01-11T00:52:55.226Z,3.15
2024-01-11T00:53:55.184Z,3.12
2024-01-11T00:54:55.191Z,3.12
2024-01-11T00:55:55.344Z,3.29
2024-01-11T00:56:55.317Z,3.44
2024-01-11T00:57:55.247Z,3.57
2024-01-11T00:58:56.164Z,3.60
2024-01-11T00:59:55.231Z,3.57
2024-01-11T01:00:55.179Z,3.60
2024-01-11T01:01:55.196Z,3.44
2024-01-11T01:02:56.077Z,3.35
2024-01-11T01:03:55.191Z,3.28
2024-01-11T01:04:56.178Z,3.24
2024-01-11T01:05:55.352Z,3.35
2024-01-11T01:06:55.254Z,3.46
2024-01-11T01:07:55.314Z,3.61
2024-01-11T01:08:55.374Z,3.71
2024-01-11T01:09:55.188Z,3.80
2024-01-11T01:10:55.307Z,3.94
2024-01-11T01:11:55.276Z,3.95
2024-01-11T01:12:55.322Z,3.81
2024-01-11T01:13:55.314Z,3.57
2024-01-11T01:14:55.279Z,3.55
2024-01-11T01:15:55.262Z,3.35
2024-01-11T01:16:55.199Z,3.03
2024-01-11T01:17:55.503Z,2.94
2024-01-11T01:18:55.332Z,3.05
2024-01-11T01:19:55.349Z,3.26
2024-01-11T01:20:55.300Z,3.37
2024-01-11T01:21:55.269Z,3.37
2024-01-11T01:22:55.287Z,3.23
2024-01-11T01:23:55.287Z,3.22
2024-01-11T01:24:55.325Z,3.30
2024-01-11T01:25:55.314Z,3.38
2024-01-11T01:26:55.299Z,3.53
2024-01-11T01:27:55.382Z,3.39
2024-01-11T01:28:55.299Z,3.31
2024-01-11T01:29:55.326Z,3.26
2024-01-11T01:30:55.383Z,3.34
2024-01-11T01:31:55.474Z,3.44
2024-01-11T01:32:55.435Z,3.54
2024-01-11T01:33:55.414Z,3.62
2024-01-11T01:34:55.323Z,3.58
2024-01-11T01:35:55.285Z,3.58
2024-01-11T01:36:55.337Z,3.49
2024-01-11T01:37:55.271Z,3.49
2024-01-11T01:38:55.370Z,3.53
2024-01-11T01:39:55.322Z,3.67
2024-01-11T01:40:55.461Z,3.58
2024-01-11T01:41:55.192Z,3.48
2024-01-11T01:42:55.302Z,3.46
2024-01-11T01:43:55.287Z,3.46
2024-01-11T01:44:55.339Z,3.46
2024-01-11T01:45:55.439Z,3.57
2024-01-11T01:46:55.369Z,3.65
2024-01-11T01:47:55.394Z,3.63
2024-01-11T01:48:55.403Z,3.63
2024-01-11T01:49:55.384Z,3.53
2024-01-11T01:50:55.357Z,3.72
2024-01-11T01:51:55.372Z,3.91
2024-01-11T01:52:55.386Z,3.90
2024-01-11T01:53:55.317Z,3.95
2024-01-11T01:54:55.311Z,3.99
2024-01-11T01:55:55.304Z,3.80
2024-01-11T01:56:55.333Z,3.45
2024-01-11T01:57:55.432Z,3.24
2024-01-11T01:58:55.377Z,3.23
2024-01-11T01:59:55.425Z,3.17
2024-01-11T02:00:56.197Z,2.96
2024-01-11T02:01:55.430Z,2.94
2024-01-11T02:02:55.500Z,3.06
2024-01-11T02:03:55.504Z,3.10
2024-01-11T02:04:55.512Z,3.04
2024-01-11T02:05:55.593Z,2.94
2024-01-11T02:06:55.457Z,3.01
2024-01-11T02:07:55.392Z,3.02
2024-01-11T02:08:55.401Z,3.12
2024-01-11T02:09:55.493Z,3.08
2024-01-11T02:10:55.508Z,3.01
2024-01-11T02:11:55.480Z,2.87
2024-01-11T02:12:56.073Z,2.80
2024-01-11T02:13:55.470Z,2.79
2024-01-11T02:14:55.468Z,2.89
2024-01-11T02:15:55.360Z,3.03
2024-01-11T02:16:55.490Z,3.01
2024-01-11T02:17:55.485Z,3.07
2024-01-11T02:18:55.480Z,3.19
2024-01-11T02:19:55.537Z,3.29
2024-01-11T02:20:55.428Z,3.25
2024-01-11T02:21:55.417Z,3.28
2024-01-11T02:22:56.174Z,3.29
2024-01-11T02:23:55.476Z,3.27
2024-01-11T02:24:55.460Z,3.31
2024-01-11T02:25:55.433Z,3.06
2024-01-11T02:26:55.468Z,2.87
2024-01-11T02:27:55.419Z,2.61
2024-01-11T02:28:55.492Z,2.84
2024-01-11T02:29:55.359Z,3.07
2024-01-11T02:30:55.476Z,3.22
2024-01-11T02:31:56.056Z,3.35
2024-01-11T02:32:55.664Z,3.37
2024-01-11T02:33:55.418Z,3.33
2024-01-11T02:34:56.141Z,3.25
2024-01-11T02:35:55.359Z,3.28
2024-01-11T02:36:55.362Z,3.47
2024-01-11T02:37:56.182Z,3.63
2024-01-11T02:38:55.367Z,3.78
2024-01-11T02:39:56.048Z,3.88
2024-01-11T02:40:55.337Z,3.72
2024-01-11T02:41:55.311Z,3.56
2024-01-11T02:42:57.009Z,3.47
2024-01-11T02:43:55.350Z,3.38
2024-01-11T02:44:55.302Z,3.59
2024-01-11T02:45:56.170Z,3.56
2024-01-11T02:46:55.370Z,3.63
2024-01-11T02:47:55.358Z,3.72
2024-01-11T02:48:55.382Z,3.78
2024-01-11T02:49:55.326Z,3.81
2024-01-11T02:50:55.346Z,3.86
2024-01-11T02:51:55.192Z,4.03
2024-01-11T02:52:55.287Z,4.15
2024-01-11T02:53:55.269Z,4.14
2024-01-11T02:54:56.139Z,4.01
2024-01-11T02:55:55.344Z,3.92
2024-01-11T02:56:55.248Z,3.85
2024-01-11T02:57:55.261Z,3.83
2024-01-11T02:58:55.401Z,3.83
2024-01-11T02:59:55.318Z,3.89
2024-01-11T03:00:55.317Z,3.97
2024-01-11T03:01:55.323Z,3.80
2024-01-11T03:02:55.295Z,3.61
2024-01-11T03:03:55.394Z,3.50
2024-01-11T03:04:55.301Z,3.53
2024-01-11T03:05:55.398Z,3.51
2024-01-11T03:06:55.338Z,3.56
2024-01-11T03:07:55.300Z,3.50
2024-01-11T03:08:55.311Z,3.51
2024-01-11T03:09:55.287Z,3.66
2024-01-11T03:10:55.324Z,3.73
2024-01-11T03:11:55.258Z,3.71
2024-01-11T03:12:55.272Z,3.79
2024-01-11T03:13:55.279Z,3.70
2024-01-11T03:14:55.268Z,3.59
2024-01-11T03:15:55.280Z,3.67
2024-01-11T03:16:55.286Z,3.65
2024-01-11T03:17:55.451Z,3.57
2024-01-11T03:18:55.358Z,3.77
2024-01-11T03:19:55.403Z,3.92
2024-01-11T03:20:55.989Z,4.00
2024-01-11T03:21:55.376Z,4.12
2024-01-11T03:22:55.319Z,4.03
2024-01-11T03:23:55.260Z,3.98
2024-01-11T03:24:55.309Z,3.91
2024-01-11T03:25:55.359Z,3.83
2024-01-11T03:26:55.292Z,3.87
2024-01-11T03:27:55.338Z,3.96
2024-01-11T03:28:55.387Z,4.06
2024-01-11T03:29:55.328Z,3.93
2024-01-11T03:30:55.410Z,3.74
2024-01-11T03:31:55.390Z,3.92
2024-01-11T03:32:55.469Z,4.02
2024-01-11T03:33:55.357Z,4.09
2024-01-11T03:34:56.142Z,4.14
2024-01-11T03:35:55.259Z,4.08
2024-01-11T03:36:55.288Z,3.95
2024-01-11T03:37:55.306Z,3.99
2024-01-11T03:38:55.266Z,3.84
2024-01-11T03:39:55.301Z,3.81
2024-01-11T03:40:55.326Z,3.89
2024-01-11T03:41:55.246Z,3.93
2024-01-11T03:42:55.226Z,3.96
2024-01-11T03:43:55.268Z,4.06
2024-01-11T03:44:55.285Z,4.13
2024-01-11T03:45:55.272Z,4.06
2024-01-11T03:46:55.342Z,3.93
2024-01-11T03:47:55.357Z,3.65
2024-01-11T03:48:56.024Z,3.52
2024-01-11T03:49:55.383Z,3.52
2024-01-11T03:50:55.331Z,3.49
2024-01-11T03:51:55.333Z,3.48
2024-01-11T03:52:55.570Z,3.62
2024-01-11T03:53:55.474Z,3.72
2024-01-11T03:54:55.407Z,3.75
2024-01-11T03:55:55.369Z,3.80
2024-01-11T03:56:55.416Z,3.82
2024-01-11T03:57:55.388Z,3.86
2024-01-11T03:58:55.466Z,3.95
2024-01-11T03:59:56.087Z,4.00
2024-01-11T04:00:55.407Z,3.82
2024-01-11T04:01:55.403Z,3.69
2024-01-11T04:02:55.364Z,3.39
2024-01-11T04:03:55.545Z,3.13
2024-01-11T04:04:55.402Z,2.99
2024-01-11T04:05:55.441Z,3.10
2024-01-11T04:06:55.373Z,3.27
2024-01-11T04:07:55.420Z,3.53
2024-01-11T04:08:55.328Z,3.80
2024-01-11T04:09:55.370Z,3.92
2024-01-11T04:10:56.106Z,4.02
2024-01-11T04:11:55.358Z,4.04
2024-01-11T04:12:55.307Z,4.08
2024-01-11T04:13:55.382Z,4.03
2024-01-11T04:14:55.300Z,4.10
2024-01-11T04:15:55.326Z,3.98
2024-01-11T04:16:55.395Z,3.95
2024-01-11T04:17:55.373Z,3.92
2024-01-11T04:18:55.300Z,3.88
2024-01-11T04:19:55.370Z,4.02
2024-01-11T04:20:55.243Z,4.05
2024-01-11T04:21:55.286Z,3.97
2024-01-11T04:22:55.265Z,3.99
2024-01-11T04:23:55.250Z,4.06
2024-01-11T04:24:55.306Z,4.08
2024-01-11T04:25:55.216Z,3.85
2024-01-11T04:26:56.138Z,3.56
2024-01-11T04:27:55.244Z,3.55
2024-01-11T04:28:57.917Z,3.58
2024-01-11T04:29:55.316Z,3.62
2024-01-11T04:30:55.377Z,3.75
2024-01-11T04:31:55.262Z,3.87
2024-01-11T04:32:55.337Z,3.88
2024-01-11T04:33:56.263Z,3.59
2024-01-11T04:34:55.280Z,3.38
2024-01-11T04:35:55.036Z,3.21
2024-01-11T04:36:55.171Z,3.24
2024-01-11T04:37:55.188Z,3.25
2024-01-11T04:38:55.144Z,3.31
2024-01-11T04:39:55.090Z,3.13
2024-01-11T04:40:55.214Z,3.17
2024-01-11T04:41:55.162Z,2.84
2024-01-11T04:42:55.170Z,2.82
2024-01-11T04:43:55.231Z,2.96
2024-01-11T04:44:55.167Z,2.94
2024-01-11T04:45:55.202Z,2.95
2024-01-11T04:46:55.216Z,3.16
2024-01-11T04:47:55.539Z,3.33
2024-01-11T04:48:55.366Z,3.37
2024-01-11T04:49:55.286Z,3.49
2024-01-11T04:50:55.237Z,3.58
2024-01-11T04:51:55.191Z,3.48
2024-01-11T04:52:55.234Z,3.42
2024-01-11T04:53:55.223Z,3.22
2024-01-11T04:54:55.247Z,2.90
2024-01-11T04:55:55.172Z,2.66
2024-01-11T04:56:55.176Z,2.55
2024-01-11T04:57:55.180Z,2.65
2024-01-11T04:58:55.245Z,2.87
2024-01-11T04:59:55.234Z,2.80
2024-01-11T05:00:55.316Z,2.80
2024-01-11T05:01:55.224Z,2.88
2024-01-11T05:02:55.370Z,2.93
2024-01-11T05:03:55.254Z,3.09
2024-01-11T05:04:55.233Z,3.12
2024-01-11T05:05:55.277Z,3.14
2024-01-11T05:06:55.270Z,3.13
2024-01-11T05:07:55.245Z,2.95
2024-01-11T05:08:56.111Z,2.94
2024-01-11T05:09:55.246Z,3.09
2024-01-11T05:10:55.252Z,3.18
2024-01-11T05:11:55.255Z,3.27
2024-01-11T05:12:55.261Z,3.22
2024-01-11T05:13:55.312Z,3.11
2024-01-11T05:14:56.085Z,3.05
2024-01-11T05:15:55.265Z,3.05
2024-01-11T05:16:55.350Z,3.20
2024-01-11T05:17:55.466Z,3.25
2024-01-11T05:18:55.414Z,3.16
2024-01-11T05:19:55.312Z,3.14
2024-01-11T05:20:56.159Z,3.03
2024-01-11T05:21:55.274Z,2.87
2024-01-11T05:22:56.134Z,2.91
2024-01-11T05:23:55.290Z,2.99
2024-01-11T05:24:55.342Z,2.88
2024-01-11T05:25:55.347Z,2.90
2024-01-11T05:26:55.337Z,3.04
2024-01-11T05:27:55.308Z,3.14
2024-01-11T05:28:55.354Z,3.25
2024-01-11T05:29:55.206Z,3.13
2024-01-11T05:30:56.301Z,3.12
2024-01-11T05:31:55.423Z,3.03
2024-01-11T05:41:13.902Z,3.14
2024-01-11T05:42:03.492Z,2.99
2024-01-11T05:43:03.531Z,2.69
2024-01-11T05:44:03.587Z,2.56
2024-01-11T05:45:03.612Z,2.59
2024-01-11T05:46:03.629Z,2.77
2024-01-11T05:47:03.654Z,2.84
2024-01-11T05:48:03.741Z,2.84
2024-01-11T05:49:03.738Z,2.82
2024-01-11T05:50:03.775Z,2.90
2024-01-11T05:51:03.781Z,2.99
2024-01-11T05:52:03.936Z,3.12
2024-01-11T05:53:03.765Z,3.27
2024-01-11T05:54:03.810Z,3.21
2024-01-11T05:55:03.959Z,3.07
2024-01-11T05:56:04.043Z,3.19
2024-01-11T05:57:04.175Z,3.16
2024-01-11T05:58:04.175Z,3.29
2024-01-11T05:59:04.237Z,3.39
2024-01-11T06:00:04.302Z,3.48
2024-01-11T06:02:27.216Z,3.26
2024-01-11T06:03:04.769Z,3.12
2024-01-11T06:04:04.466Z,3.09
2024-01-11T06:05:04.562Z,3.21
2024-01-11T06:06:04.735Z,3.16
2024-01-11T06:07:05.292Z,3.21
2024-01-11T06:08:04.529Z,3.33
2024-01-11T06:09:04.599Z,3.32
2024-01-11T06:10:04.596Z,3.14
2024-01-11T06:11:04.635Z,2.93
2024-01-11T06:12:04.623Z,2.98
2024-01-11T06:13:04.624Z,2.95
2024-01-11T06:14:06.492Z,3.02
2024-01-11T06:15:04.868Z,3.04
2024-01-11T06:16:04.760Z,2.93
2024-01-11T06:17:04.873Z,2.81
2024-01-11T06:18:04.838Z,2.69
2024-01-11T06:19:04.976Z,2.82
2024-01-11T06:20:05.050Z,2.99
2024-01-11T06:21:05.096Z,3.05
2024-01-11T06:22:05.211Z,3.12
2024-01-11T06:23:05.323Z,3.00
2024-01-11T06:24:05.220Z,2.95
2024-01-11T06:25:05.430Z,3.05
2024-01-11T06:26:05.599Z,3.15
2024-01-11T06:27:05.638Z,3.18
2024-01-11T06:28:05.646Z,3.19
2024-01-11T06:29:05.787Z,3.19
2024-01-11T06:30:06.193Z,3.15
2024-01-11T06:31:05.994Z,3.20
2024-01-11T06:32:05.837Z,3.23
2024-01-11T06:33:06.035Z,3.27
2024-01-11T06:34:06.028Z,3.22
2024-01-11T06:35:06.664Z,3.18
2024-01-11T06:36:06.208Z,3.09
2024-01-11T06:37:06.140Z,3.10
2024-01-11T06:38:06.266Z,3.08
2024-01-11T06:39:06.148Z,3.04
2024-01-11T06:40:06.654Z,2.94
2024-01-11T06:41:06.263Z,2.88
2024-01-11T06:42:06.374Z,2.65
2024-01-11T06:43:06.572Z,2.54
2024-01-11T06:44:06.448Z,2.64
2024-01-11T06:45:06.510Z,2.80
2024-01-11T06:47:29.054Z,2.86
2024-01-11T06:48:06.581Z,3.05
2024-01-11T06:49:06.955Z,3.14
2024-01-11T06:50:06.706Z,3.08
2024-01-11T06:51:06.712Z,2.85
2024-01-11T06:52:06.584Z,2.50
2024-01-11T06:53:06.799Z,2.35
2024-01-11T06:54:06.576Z,2.47
2024-01-11T06:55:06.698Z,2.60
2024-01-11T06:56:06.712Z,2.66
2024-01-11T06:57:06.646Z,2.48
2024-01-11T06:58:06.829Z,2.39
2024-01-11T06:59:06.744Z,2.48
2024-01-11T07:00:07.045Z,2.62
2024-01-11T07:01:06.844Z,2.76
2024-01-11T07:02:06.889Z,2.84
2024-01-11T07:03:06.862Z,2.94
2024-01-11T07:04:07.029Z,3.05
2024-01-11T07:05:07.082Z,3.09
2024-01-11T07:06:07.304Z,3.15
2024-01-11T07:07:07.073Z,3.18
2024-01-11T07:08:07.283Z,3.06
2024-01-11T07:09:07.324Z,2.99
2024-01-11T07:10:07.396Z,2.96
2024-01-11T07:11:07.468Z,3.00
2024-01-11T07:12:07.895Z,2.99
2024-01-11T07:13:08.074Z,3.02
2024-01-11T07:14:07.763Z,3.21
2024-01-11T07:15:08.154Z,3.41
2024-01-11T07:16:07.745Z,3.37
2024-01-11T07:17:07.860Z,3.41
2024-01-11T07:18:08.002Z,3.37
2024-01-11T07:19:08.943Z,3.37
2024-01-11T07:20:08.478Z,3.35
2024-01-11T07:21:08.101Z,3.27
2024-01-11T07:22:07.986Z,3.18
2024-01-11T07:23:08.045Z,3.12
2024-01-11T07:24:08.115Z,3.15
2024-01-11T07:25:08.539Z,3.16
2024-01-11T07:26:08.384Z,2.89
2024-01-11T07:27:08.258Z,2.85
2024-01-11T07:28:08.408Z,2.87
2024-01-11T07:29:08.488Z,2.94
2024-01-11T07:30:08.510Z,2.99
2024-01-11T07:31:08.808Z,3.13
2024-01-11T07:32:08.604Z,3.04
2024-01-11T07:33:10.864Z,3.20
2024-01-11T07:34:08.646Z,3.30
2024-01-11T07:35:12.162Z,3.06
2024-01-11T07:36:10.070Z,2.88
2024-01-11T07:37:09.313Z,2.93
2024-01-11T07:38:09.073Z,3.10
2024-01-11T07:39:10.532Z,2.95
2024-01-11T07:40:09.330Z,2.83
2024-01-11T07:41:09.602Z,2.70
2024-01-11T07:42:09.156Z,2.60
2024-01-11T07:43:09.840Z,2.61
2024-01-11T07:44:09.198Z,2.52
2024-01-11T07:45:09.666Z,2.43
2024-01-11T07:46:09.752Z,2.31
2024-01-11T07:47:09.860Z,2.53
2024-01-11T07:48:09.598Z,2.74
2024-01-11T07:49:10.221Z,2.77
2024-01-11T07:50:09.621Z,2.82
2024-01-11T07:51:09.645Z,2.90
2024-01-11T07:52:10.229Z,3.00
2024-01-11T07:53:09.988Z,2.98
2024-01-11T07:54:09.780Z,3.03
2024-01-11T07:55:10.457Z,3.13
2024-01-11T07:56:09.930Z,3.19
2024-01-11T07:57:10.604Z,3.28
2024-01-11T07:58:09.999Z,3.15
2024-01-11T07:59:10.412Z,3.08
2024-01-11T08:00:10.515Z,3.02
2024-01-11T08:01:11.008Z,2.88
2024-01-11T08:02:10.564Z,2.95
2024-01-11T08:03:10.485Z,3.05
2024-01-11T08:04:10.671Z,2.99
2024-01-11T08:05:12.457Z,3.04
2024-01-11T08:06:11.536Z,3.08
2024-01-11T08:07:11.355Z,3.10
2024-01-11T08:08:10.583Z,3.15
2024-01-11T08:09:11.518Z,3.20
2024-01-11T08:10:34.632Z,3.21
2024-01-11T08:11:10.878Z,3.26
2024-01-11T08:12:11.231Z,3.36
2024-01-11T08:13:11.753Z,3.31
2024-01-11T08:14:11.041Z,3.30
2024-01-11T08:15:11.238Z,3.20
2024-01-11T08:16:11.726Z,3.25
2024-01-11T08:17:12.377Z,3.30
2024-01-11T08:18:11.967Z,3.41
2024-01-11T08:19:11.424Z,3.49
2024-01-11T08:20:11.419Z,3.48
2024-01-11T08:21:11.455Z,3.40
2024-01-11T08:22:11.058Z,3.30
2024-01-11T08:23:11.883Z,3.33
2024-01-11T08:24:11.181Z,3.28
2024-01-11T08:25:12.047Z,3.41
2024-01-11T08:26:12.060Z,3.24
2024-01-11T08:27:11.292Z,2.99
2024-01-11T08:28:11.922Z,2.58
2024-01-11T08:29:11.589Z,2.27
2024-01-11T08:30:11.716Z,2.15
2024-01-11T08:31:11.625Z,2.22
2024-01-11T08:32:19.984Z,2.32
2024-01-11T08:33:12.966Z,2.59
2024-01-11T08:34:15.273Z,2.79
2024-01-11T08:35:11.882Z,3.08
2024-01-11T08:36:11.566Z,3.28
2024-01-11T08:37:11.412Z,3.45
2024-01-11T08:38:12.082Z,3.47
2024-01-11T08:39:11.465Z,3.55
2024-01-11T08:40:11.484Z,3.59
2024-01-11T08:41:11.613Z,3.64
2024-01-11T08:42:11.591Z,3.81
2024-01-11T08:43:11.763Z,3.82
2024-01-11T08:44:12.144Z,3.45
2024-01-11T08:45:11.611Z,3.30
2024-01-11T08:46:11.619Z,3.36
2024-01-11T08:47:11.678Z,3.41
2024-01-11T08:48:11.794Z,3.46
2024-01-11T08:49:11.847Z,3.53
2024-01-11T08:50:11.680Z,3.57
2024-01-11T08:51:12.232Z,3.66
2024-01-11T08:52:11.832Z,3.79
2024-01-11T08:53:11.896Z,3.55
2024-01-11T08:54:11.792Z,3.43
2024-01-11T08:55:11.805Z,3.37
2024-01-11T08:56:12.273Z,3.37
2024-01-11T08:57:12.133Z,3.35
2024-01-11T08:58:37.634Z,3.29
2024-01-11T08:59:11.940Z,3.13
2024-01-11T09:00:11.885Z,3.14
2024-01-11T09:01:12.094Z,3.34
2024-01-11T09:02:15.850Z,3.46
2024-01-11T09:03:13.576Z,3.64
2024-01-11T09:04:12.093Z,3.76
2024-01-11T09:05:12.054Z,3.76
2024-01-11T09:06:12.232Z,3.82
2024-01-11T09:07:12.394Z,3.91
2024-01-11T09:08:12.229Z,3.84
2024-01-11T09:09:12.464Z,3.88
2024-01-11T09:10:12.441Z,3.88
2024-01-11T09:11:12.806Z,3.82
2024-01-11T09:12:12.690Z,3.90
2024-01-11T09:13:14.099Z,3.94
2024-01-11T09:14:12.838Z,3.75
2024-01-11T09:15:12.746Z,3.71
2024-01-11T09:16:12.799Z,3.71
2024-01-11T09:17:12.969Z,3.80
2024-01-11T09:18:13.426Z,3.78
2024-01-11T09:19:13.174Z,3.67
2024-01-11T09:20:13.368Z,3.42
2024-01-11T09:21:13.198Z,3.37
2024-01-11T09:22:13.595Z,3.39
2024-01-11T09:23:13.281Z,3.57
2024-01-11T09:24:13.334Z,3.57
2024-01-11T09:25:13.320Z,3.31
2024-01-11T09:26:13.491Z,3.12
2024-01-11T09:27:13.437Z,3.22
2024-01-11T09:28:13.578Z,3.24
2024-01-11T09:29:13.615Z,3.19
2024-01-11T09:30:13.639Z,3.14
2024-01-11T09:31:14.205Z,3.21
2024-01-11T09:32:13.782Z,3.11
2024-01-11T09:33:13.778Z,3.21
2024-01-11T09:34:13.997Z,3.33
2024-01-11T09:35:16.195Z,3.45
2024-01-11T09:36:14.157Z,3.54
2024-01-11T09:37:13.935Z,3.56
2024-01-11T09:38:14.290Z,3.54
2024-01-11T09:39:14.144Z,3.64
2024-01-11T09:40:14.062Z,3.63
2024-01-11T09:41:15.066Z,3.56
2024-01-11T09:42:13.996Z,3.65
2024-01-11T09:43:14.158Z,3.66
2024-01-11T09:44:14.100Z,3.58
2024-01-11T09:45:14.215Z,3.66
2024-01-11T09:46:14.680Z,3.88
2024-01-11T09:47:16.342Z,3.87
2024-01-11T09:48:14.246Z,3.86
2024-01-11T09:49:14.255Z,3.98
2024-01-11T09:50:14.439Z,4.03
2024-01-11T09:51:14.214Z,3.92
2024-01-11T09:52:14.656Z,4.01
2024-01-11T09:53:14.261Z,4.22
2024-01-11T09:54:14.216Z,4.15
2024-01-11T09:55:14.678Z,3.99
2024-01-11T09:56:14.311Z,4.06
2024-01-11T09:57:15.213Z,4.04
2024-01-11T09:58:14.518Z,4.13
2024-01-11T09:59:15.239Z,4.23
2024-01-11T10:00:14.509Z,4.22
2024-01-11T10:01:15.448Z,4.20
2024-01-11T10:02:14.690Z,4.28
2024-01-11T10:03:14.813Z,4.47
2024-01-11T10:04:15.762Z,4.66
2024-01-11T10:05:15.328Z,4.82
2024-01-11T10:06:14.358Z,4.87
2024-01-11T10:07:15.447Z,4.90
2024-01-11T10:08:15.633Z,4.92
2024-01-11T10:09:14.696Z,4.80
2024-01-11T10:10:15.424Z,4.90
2024-01-11T10:11:15.200Z,4.82
2024-01-11T10:12:15.197Z,4.71
2024-01-11T10:13:15.249Z,4.76
2024-01-11T10:14:14.666Z,4.71
2024-01-11T10:15:14.689Z,4.76
2024-01-11T10:16:23.251Z,4.66
2024-01-11T10:17:25.636Z,4.60
2024-01-11T10:18:23.319Z,4.65
2024-01-11T10:19:23.334Z,4.59
2024-01-11T10:20:22.950Z,4.58
2024-01-11T10:21:23.953Z,4.76
2024-01-11T10:22:24.852Z,4.89
2024-01-11T10:23:23.938Z,4.71
2024-01-11T10:24:23.002Z,4.44
2024-01-11T10:25:22.997Z,4.26
2024-01-11T10:26:22.722Z,4.48
2024-01-11T10:27:22.994Z,4.68
2024-01-11T10:28:22.610Z,4.72
2024-01-11T10:29:22.859Z,4.74
2024-01-11T10:30:22.624Z,4.64
2024-01-11T10:31:23.040Z,4.77
2024-01-11T10:32:23.201Z,4.95
2024-01-11T10:33:23.577Z,5.15
2024-01-11T10:34:22.612Z,5.29
2024-01-11T10:35:23.385Z,5.39
2024-01-11T10:36:23.042Z,5.53
2024-01-11T10:37:22.978Z,5.55
2024-01-11T10:38:22.862Z,5.74
2024-01-11T10:39:22.395Z,5.70
2024-01-11T10:40:22.399Z,5.65
2024-01-11T10:41:22.383Z,5.57
2024-01-11T10:42:22.716Z,5.39
2024-01-11T10:43:22.709Z,5.02
2024-01-11T10:44:22.374Z,5.18
2024-01-11T10:45:23.809Z,5.41
2024-01-11T10:46:23.034Z,5.57
2024-01-11T10:47:23.604Z,5.77
2024-01-11T10:48:22.500Z,5.94
2024-01-11T10:49:22.812Z,6.17
2024-01-11T10:50:22.423Z,6.15
2024-01-11T10:51:22.875Z,6.10
2024-01-11T10:52:23.285Z,6.16
2024-01-11T10:53:22.598Z,6.09
2024-01-11T10:54:22.715Z,6.25
2024-01-11T10:55:23.756Z,6.41
2024-01-11T10:56:23.796Z,6.44
2024-01-11T10:57:22.605Z,6.50
2024-01-11T10:58:22.774Z,6.64
2024-01-11T10:59:22.636Z,6.69
2024-01-11T11:00:24.204Z,6.73
2024-01-11T11:01:23.252Z,6.85
2024-01-11T11:02:24.062Z,6.91
2024-01-11T11:03:23.100Z,6.97
2024-01-11T11:04:24.116Z,7.05
2024-01-11T11:05:24.115Z,6.95
2024-01-11T11:06:22.621Z,6.64
2024-01-11T11:07:23.697Z,6.32
2024-01-11T11:08:23.730Z,6.22
2024-01-11T11:09:24.315Z,6.25
2024-01-11T11:10:22.366Z,6.40
2024-01-11T11:11:22.988Z,6.49
2024-01-11T11:12:23.029Z,6.29
2024-01-11T11:13:23.046Z,6.31
2024-01-11T11:14:22.988Z,6.62
2024-01-11T11:15:22.306Z,6.79
2024-01-11T11:16:22.928Z,6.91
2024-01-11T11:17:24.273Z,7.15
2024-01-11T11:18:23.535Z,7.18
2024-01-11T11:19:22.441Z,7.24
2024-01-11T11:20:22.225Z,7.34
2024-01-11T11:21:22.453Z,7.45
2024-01-11T11:22:23.009Z,7.43
2024-01-11T11:23:22.077Z,7.34
2024-01-11T11:24:23.704Z,7.24
2024-01-11T11:25:22.748Z,7.26
2024-01-11T11:26:22.321Z,6.97
2024-01-11T11:27:26.306Z,6.73
2024-01-11T11:28:23.436Z,6.71
2024-01-11T11:29:22.710Z,6.86
2024-01-11T11:30:21.844Z,7.11
2024-01-11T11:31:22.112Z,7.32
2024-01-11T11:32:22.282Z,7.23
2024-01-11T11:33:22.624Z,7.25
2024-01-11T11:34:21.765Z,7.35
2024-01-11T11:35:22.257Z,7.57
2024-01-11T11:36:21.436Z,7.60
2024-01-11T11:37:21.768Z,7.68
2024-01-11T11:38:21.393Z,7.80
2024-01-11T11:39:21.678Z,7.83
2024-01-11T11:40:21.682Z,7.54
2024-01-11T11:41:21.206Z,7.40
2024-01-11T11:42:21.186Z,7.38
2024-01-11T11:43:22.731Z,7.34
2024-01-11T11:44:21.084Z,7.37
2024-01-11T11:45:20.881Z,7.51
2024-01-11T11:46:21.407Z,7.60
2024-01-11T11:47:21.761Z,7.37
2024-01-11T11:48:20.862Z,7.12
2024-01-11T11:49:20.580Z,7.26
2024-01-11T11:50:20.618Z,7.30
2024-01-11T11:51:21.315Z,7.43
2024-01-11T11:52:20.942Z,7.40
2024-01-11T11:53:20.565Z,7.48
2024-01-11T11:54:20.555Z,7.61
2024-01-11T11:55:20.568Z,7.77
2024-01-11T11:56:20.473Z,7.60
2024-01-11T11:57:20.469Z,7.64
2024-01-11T11:58:20.683Z,7.77
2024-01-11T11:59:20.545Z,7.87
2024-01-11T12:00:20.491Z,8.09
2024-01-11T12:01:20.471Z,8.22
2024-01-11T12:02:20.423Z,8.08
2024-01-11T12:03:20.710Z,8.18
2024-01-11T12:04:20.435Z,8.29
2024-01-11T12:05:20.483Z,8.34
2024-01-11T12:06:20.282Z,8.37
2024-01-11T12:07:20.146Z,8.38
2024-01-11T12:08:20.472Z,8.44
2024-01-11T12:09:20.340Z,8.46
2024-01-11T12:10:20.093Z,8.51
2024-01-11T12:11:19.821Z,8.55
2024-01-11T12:12:19.772Z,8.25
2024-01-11T12:13:19.741Z,8.01
2024-01-11T12:14:19.644Z,8.01
2024-01-11T12:15:19.726Z,8.10
2024-01-11T12:16:19.512Z,8.14
2024-01-11T12:17:19.434Z,7.98
2024-01-11T12:18:20.228Z,8.06
2024-01-11T12:19:19.596Z,8.14
2024-01-11T12:20:19.429Z,8.19
2024-01-11T12:21:19.294Z,8.13
2024-01-11T12:22:19.684Z,8.02
2024-01-11T12:23:19.359Z,8.15
2024-01-11T12:24:19.216Z,8.04
2024-01-11T12:25:19.348Z,8.01
2024-01-11T12:26:21.098Z,8.13
2024-01-11T12:27:19.159Z,8.32
2024-01-11T12:28:21.325Z,8.31
2024-01-11T12:29:19.196Z,8.19
2024-01-11T12:30:19.728Z,8.22
2024-01-11T12:31:19.102Z,8.21
2024-01-11T12:32:19.405Z,8.32
2024-01-11T12:33:19.432Z,8.31
2024-01-11T12:34:19.137Z,8.43
2024-01-11T12:35:19.022Z,8.59
2024-01-11T12:36:18.902Z,8.72
2024-01-11T12:37:18.926Z,8.79
2024-01-11T12:38:20.048Z,8.65
2024-01-11T12:39:18.827Z,8.51
2024-01-11T12:40:18.802Z,8.70
2024-01-11T12:41:18.733Z,8.72
2024-01-11T12:42:18.744Z,8.71
2024-01-11T12:43:19.155Z,8.81
2024-01-11T12:44:18.778Z,8.78
2024-01-11T12:45:18.708Z,8.65
2024-01-11T12:46:18.660Z,8.60
2024-01-11T12:47:18.560Z,8.34
2024-01-11T12:48:18.814Z,8.10
2024-01-11T12:49:18.721Z,7.81
2024-01-11T12:50:18.662Z,7.69
2024-01-11T12:51:21.548Z,7.46
2024-01-11T12:52:18.394Z,7.01
2024-01-11T12:53:18.411Z,6.82
2024-01-11T12:54:18.296Z,6.62
2024-01-11T12:55:18.324Z,6.53
2024-01-11T12:56:18.388Z,6.45
2024-01-11T12:57:18.202Z,6.64
2024-01-11T12:58:18.126Z,6.78
2024-01-11T12:59:18.112Z,7.08
2024-01-11T13:00:17.977Z,7.23
2024-01-11T13:01:17.925Z,7.30
2024-01-11T13:02:19.560Z,7.25
2024-01-11T13:03:17.972Z,7.26
2024-01-11T13:04:17.860Z,7.36
2024-01-11T13:05:17.816Z,7.48
2024-01-11T13:06:17.863Z,7.61
2024-01-11T13:07:17.668Z,7.77
2024-01-11T13:08:19.305Z,7.76
2024-01-11T13:09:18.000Z,7.66
2024-01-11T13:10:17.480Z,7.66
2024-01-11T13:11:17.458Z,7.90
2024-01-11T13:12:17.392Z,7.96
2024-01-11T13:13:17.324Z,7.81
2024-01-11T13:14:17.286Z,7.96
2024-01-11T13:15:17.109Z,7.98
2024-01-11T13:16:17.257Z,7.87
2024-01-11T13:17:17.356Z,7.68
2024-01-11T13:18:16.884Z,7.45
2024-01-11T13:19:24.431Z,7.43
2024-01-11T13:20:17.829Z,7.44
2024-01-11T13:21:16.825Z,7.54
2024-01-11T13:22:16.657Z,7.62
2024-01-11T13:23:16.703Z,7.71
2024-01-11T13:24:16.451Z,7.64
2024-01-11T13:25:16.280Z,7.60
2024-01-11T13:26:16.317Z,7.60
2024-01-11T13:27:16.182Z,7.55
2024-01-11T13:28:16.178Z,7.65
2024-01-11T13:29:15.985Z,7.79